sensor_id;sensor_type;location;lat;lon;timestamp;temperature;humidity
25154;DHT22;47555;51.038;6.280;2023-02-10T00:00:19;4.10;91.90
25154;DHT22;47555;51.038;6.280;2023-02-10T00:02:44;4.10;92.00
25154;DHT22;47555;51.038;6.280;2023-02-10T00:05:10;4.10;92.80
25154;DHT22;47555;51.038;6.280;2023-02-10T00:07:36;4.00;92.00
25154;DHT22;47555;51.038;6.280;2023-02-10T00:10:01;4.00;92.10
25154;DHT22;47555;51.038;6.280;2023-02-10T00:12:27;4.00;92.20
25154;DHT22;47555;51.038;6.280;2023-02-10T00:14:52;4.10;92.50
25154;DHT22;47555;51.038;6.280;2023-02-10T00:17:18;4.00;92.70
25154;DHT22;47555;51.038;6.280;2023-02-10T00:19:44;4.00;92.60
25154;DHT22;47555;51.038;6.280;2023-02-10T00:22:10;4.10;93.00
25154;DHT22;47555;51.038;6.280;2023-02-10T00:24:35;4.10;93.00
25154;DHT22;47555;51.038;6.280;2023-02-10T00:27:01;4.00;92.90
25154;DHT22;47555;51.038;6.280;2023-02-10T00:29:27;4.10;93.00
25154;DHT22;47555;51.038;6.280;2023-02-10T00:31:52;4.00;92.90
25154;DHT22;47555;51.038;6.280;2023-02-10T00:34:18;4.10;93.00
25154;DHT22;47555;51.038;6.280;2023-02-10T00:36:44;4.00;92.90
25154;DHT22;47555;51.038;6.280;2023-02-10T00:39:13;4.10;93.00
25154;DHT22;47555;51.038;6.280;2023-02-10T00:41:39;4.00;92.90
25154;DHT22;47555;51.038;6.280;2023-02-10T00:44:05;4.00;92.90
25154;DHT22;47555;51.038;6.280;2023-02-10T00:46:31;4.00;92.80
25154;DHT22;47555;51.038;6.280;2023-02-10T00:48:56;4.00;92.70
25154;DHT22;47555;51.038;6.280;2023-02-10T00:51:22;4.00;92.60
25154;DHT22;47555;51.038;6.280;2023-02-10T00:53:48;4.00;92.60
25154;DHT22;47555;51.038;6.280;2023-02-10T00:56:15;4.00;92.50
25154;DHT22;47555;51.038;6.280;2023-02-10T00:58:41;4.00;92.30
25154;DHT22;47555;51.038;6.280;2023-02-10T01:01:06;4.10;92.40
25154;DHT22;47555;51.038;6.280;2023-02-10T01:03:32;4.00;92.10
25154;DHT22;47555;51.038;6.280;2023-02-10T01:05:58;4.00;92.20
25154;DHT22;47555;51.038;6.280;2023-02-10T01:08:24;4.00;92.20
25154;DHT22;47555;51.038;6.280;2023-02-10T01:10:54;4.00;92.20
25154;DHT22;47555;51.038;6.280;2023-02-10T01:13:22;4.00;92.30
25154;DHT22;47555;51.038;6.280;2023-02-10T01:15:47;4.00;92.20
25154;DHT22;47555;51.038;6.280;2023-02-10T01:18:13;4.00;92.20
25154;DHT22;47555;51.038;6.280;2023-02-10T01:20:43;4.00;92.30
25154;DHT22;47555;51.038;6.280;2023-02-10T01:23:09;4.00;92.40
25154;DHT22;47555;51.038;6.280;2023-02-10T01:25:35;4.00;92.40
25154;DHT22;47555;51.038;6.280;2023-02-10T01:28:02;4.00;92.40
25154;DHT22;47555;51.038;6.280;2023-02-10T01:30:27;4.00;92.30
25154;DHT22;47555;51.038;6.280;2023-02-10T01:32:53;4.00;92.30
25154;DHT22;47555;51.038;6.280;2023-02-10T01:35:19;4.00;93.10
25154;DHT22;47555;51.038;6.280;2023-02-10T01:37:45;3.90;92.40
25154;DHT22;47555;51.038;6.280;2023-02-10T01:40:10;3.90;92.40
25154;DHT22;47555;51.038;6.280;2023-02-10T01:42:36;3.90;92.70
25154;DHT22;47555;51.038;6.280;2023-02-10T01:45:16;3.90;92.90
25154;DHT22;47555;51.038;6.280;2023-02-10T01:47:43;3.80;93.30
25154;DHT22;47555;51.038;6.280;2023-02-10T01:50:11;3.90;93.60
25154;DHT22;47555;51.038;6.280;2023-02-10T01:52:37;3.90;93.90
25154;DHT22;47555;51.038;6.280;2023-02-10T01:55:06;3.90;94.00
25154;DHT22;47555;51.038;6.280;2023-02-10T01:57:33;3.90;94.00
25154;DHT22;47555;51.038;6.280;2023-02-10T02:00:01;3.90;94.20
25154;DHT22;47555;51.038;6.280;2023-02-10T02:02:27;4.00;94.20
25154;DHT22;47555;51.038;6.280;2023-02-10T02:04:59;3.90;94.20
25154;DHT22;47555;51.038;6.280;2023-02-10T02:07:28;3.90;94.30
25154;DHT22;47555;51.038;6.280;2023-02-10T02:09:55;4.00;94.50
25154;DHT22;47555;51.038;6.280;2023-02-10T02:12:50;3.90;94.90
25154;DHT22;47555;51.038;6.280;2023-02-10T02:15:37;3.90;95.10
25154;DHT22;47555;51.038;6.280;2023-02-10T02:18:13;3.90;95.20
25154;DHT22;47555;51.038;6.280;2023-02-10T02:20:59;3.90;95.10
25154;DHT22;47555;51.038;6.280;2023-02-10T02:37:21;3.90;95.20
25154;DHT22;47555;51.038;6.280;2023-02-10T02:39:52;3.90;95.20
25154;DHT22;47555;51.038;6.280;2023-02-10T02:42:23;3.90;95.00
25154;DHT22;47555;51.038;6.280;2023-02-10T02:47:54;3.90;95.00
25154;DHT22;47555;51.038;6.280;2023-02-10T02:50:43;3.90;95.00
25154;DHT22;47555;51.038;6.280;2023-02-10T02:53:31;3.90;95.00
25154;DHT22;47555;51.038;6.280;2023-02-10T02:59:04;3.90;94.80
25154;DHT22;47555;51.038;6.280;2023-02-10T03:01:47;3.90;94.60
25154;DHT22;47555;51.038;6.280;2023-02-10T03:04:16;3.90;94.50
25154;DHT22;47555;51.038;6.280;2023-02-10T03:06:41;3.90;94.40
25154;DHT22;47555;51.038;6.280;2023-02-10T03:09:07;3.80;94.20
25154;DHT22;47555;51.038;6.280;2023-02-10T03:11:33;3.80;94.80
25154;DHT22;47555;51.038;6.280;2023-02-10T03:13:58;3.70;94.20
25154;DHT22;47555;51.038;6.280;2023-02-10T03:16:24;3.70;94.10
25154;DHT22;47555;51.038;6.280;2023-02-10T03:18:49;3.60;93.90
25154;DHT22;47555;51.038;6.280;2023-02-10T03:21:15;3.60;93.80
25154;DHT22;47555;51.038;6.280;2023-02-10T03:23:40;3.50;94.30
25154;DHT22;47555;51.038;6.280;2023-02-10T03:26:06;3.40;94.90
25154;DHT22;47555;51.038;6.280;2023-02-10T03:28:31;3.40;94.70
25154;DHT22;47555;51.038;6.280;2023-02-10T03:30:57;3.30;94.60
25154;DHT22;47555;51.038;6.280;2023-02-10T03:33:23;3.30;94.60
25154;DHT22;47555;51.038;6.280;2023-02-10T03:35:49;3.20;94.80
25154;DHT22;47555;51.038;6.280;2023-02-10T03:38:15;3.20;95.00
25154;DHT22;47555;51.038;6.280;2023-02-10T03:40:41;3.10;96.00
25154;DHT22;47555;51.038;6.280;2023-02-10T03:43:07;3.00;95.80
25154;DHT22;47555;51.038;6.280;2023-02-10T03:45:32;3.00;95.60
25154;DHT22;47555;51.038;6.280;2023-02-10T03:47:58;2.90;95.90
25154;DHT22;47555;51.038;6.280;2023-02-10T03:50:24;2.90;95.60
25154;DHT22;47555;51.038;6.280;2023-02-10T03:52:50;2.80;95.30
25154;DHT22;47555;51.038;6.280;2023-02-10T03:55:16;2.80;95.30
25154;DHT22;47555;51.038;6.280;2023-02-10T03:57:44;2.70;95.40
25154;DHT22;47555;51.038;6.280;2023-02-10T04:00:11;2.70;95.00
25154;DHT22;47555;51.038;6.280;2023-02-10T04:02:37;2.60;94.70
25154;DHT22;47555;51.038;6.280;2023-02-10T04:05:03;2.50;94.70
25154;DHT22;47555;51.038;6.280;2023-02-10T04:07:28;2.50;94.70
25154;DHT22;47555;51.038;6.280;2023-02-10T04:09:54;2.50;94.70
25154;DHT22;47555;51.038;6.280;2023-02-10T04:12:20;2.40;94.70
25154;DHT22;47555;51.038;6.280;2023-02-10T04:14:45;2.40;94.90
25154;DHT22;47555;51.038;6.280;2023-02-10T04:17:11;2.30;95.10
25154;DHT22;47555;51.038;6.280;2023-02-10T04:19:36;2.30;95.40
25154;DHT22;47555;51.038;6.280;2023-02-10T04:22:02;2.20;95.30
25154;DHT22;47555;51.038;6.280;2023-02-10T04:24:28;2.20;95.30
25154;DHT22;47555;51.038;6.280;2023-02-10T04:26:53;2.10;95.30
25154;DHT22;47555;51.038;6.280;2023-02-10T04:29:19;2.00;95.30
25154;DHT22;47555;51.038;6.280;2023-02-10T04:31:44;2.00;95.60
25154;DHT22;47555;51.038;6.280;2023-02-10T04:34:10;1.90;95.90
25154;DHT22;47555;51.038;6.280;2023-02-10T04:36:35;1.90;96.40
25154;DHT22;47555;51.038;6.280;2023-02-10T04:39:01;1.80;96.10
25154;DHT22;47555;51.038;6.280;2023-02-10T04:41:27;1.80;96.20
25154;DHT22;47555;51.038;6.280;2023-02-10T04:43:52;1.70;96.40
25154;DHT22;47555;51.038;6.280;2023-02-10T04:46:18;1.70;96.60
25154;DHT22;47555;51.038;6.280;2023-02-10T04:48:43;1.60;96.60
25154;DHT22;47555;51.038;6.280;2023-02-10T04:51:10;1.60;96.50
25154;DHT22;47555;51.038;6.280;2023-02-10T04:53:37;1.50;96.60
25154;DHT22;47555;51.038;6.280;2023-02-10T04:56:03;1.40;96.50
25154;DHT22;47555;51.038;6.280;2023-02-10T04:58:30;1.40;96.70
25154;DHT22;47555;51.038;6.280;2023-02-10T05:00:55;1.30;96.90
25154;DHT22;47555;51.038;6.280;2023-02-10T05:03:21;1.30;97.00
25154;DHT22;47555;51.038;6.280;2023-02-10T05:05:47;1.20;97.20
25154;DHT22;47555;51.038;6.280;2023-02-10T05:08:13;1.20;97.40
25154;DHT22;47555;51.038;6.280;2023-02-10T05:10:38;1.20;97.40
25154;DHT22;47555;51.038;6.280;2023-02-10T05:13:04;1.20;97.50
25154;DHT22;47555;51.038;6.280;2023-02-10T05:15:29;1.10;97.80
25154;DHT22;47555;51.038;6.280;2023-02-10T05:17:55;1.10;98.00
25154;DHT22;47555;51.038;6.280;2023-02-10T05:20:20;1.10;98.00
25154;DHT22;47555;51.038;6.280;2023-02-10T05:22:46;1.00;98.10
25154;DHT22;47555;51.038;6.280;2023-02-10T05:25:11;1.00;98.30
25154;DHT22;47555;51.038;6.280;2023-02-10T05:27:37;1.00;98.70
25154;DHT22;47555;51.038;6.280;2023-02-10T05:30:04;1.00;99.00
25154;DHT22;47555;51.038;6.280;2023-02-10T05:32:32;0.90;99.10
25154;DHT22;47555;51.038;6.280;2023-02-10T05:34:57;0.90;99.50
25154;DHT22;47555;51.038;6.280;2023-02-10T05:37:23;0.90;99.50
25154;DHT22;47555;51.038;6.280;2023-02-10T05:39:48;0.90;99.50
25154;DHT22;47555;51.038;6.280;2023-02-10T05:42:14;0.90;99.60
25154;DHT22;47555;51.038;6.280;2023-02-10T05:44:39;0.80;99.60
25154;DHT22;47555;51.038;6.280;2023-02-10T05:47:05;0.80;99.70
25154;DHT22;47555;51.038;6.280;2023-02-10T05:49:30;0.80;99.70
25154;DHT22;47555;51.038;6.280;2023-02-10T05:51:56;0.70;99.80
25154;DHT22;47555;51.038;6.280;2023-02-10T05:54:21;0.70;99.80
25154;DHT22;47555;51.038;6.280;2023-02-10T05:56:47;0.70;99.90
25154;DHT22;47555;51.038;6.280;2023-02-10T05:59:15;0.60;99.90
25154;DHT22;47555;51.038;6.280;2023-02-10T06:01:41;0.60;99.90
25154;DHT22;47555;51.038;6.280;2023-02-10T06:04:06;0.50;99.90
25154;DHT22;47555;51.038;6.280;2023-02-10T06:06:32;0.50;99.90
25154;DHT22;47555;51.038;6.280;2023-02-10T06:08:57;0.50;99.90
25154;DHT22;47555;51.038;6.280;2023-02-10T06:11:23;0.40;99.90
25154;DHT22;47555;51.038;6.280;2023-02-10T06:13:49;0.40;99.90
25154;DHT22;47555;51.038;6.280;2023-02-10T06:16:14;0.40;99.90
25154;DHT22;47555;51.038;6.280;2023-02-10T06:18:40;0.40;99.90
25154;DHT22;47555;51.038;6.280;2023-02-10T06:21:05;0.40;99.90
25154;DHT22;47555;51.038;6.280;2023-02-10T06:23:31;0.40;99.90
25154;DHT22;47555;51.038;6.280;2023-02-10T06:25:57;0.30;99.90
25154;DHT22;47555;51.038;6.280;2023-02-10T06:28:25;0.30;99.90
25154;DHT22;47555;51.038;6.280;2023-02-10T06:30:51;0.30;99.90
25154;DHT22;47555;51.038;6.280;2023-02-10T06:33:17;0.30;99.90
25154;DHT22;47555;51.038;6.280;2023-02-10T06:35:42;0.20;99.90
25154;DHT22;47555;51.038;6.280;2023-02-10T06:38:08;0.20;99.90
25154;DHT22;47555;51.038;6.280;2023-02-10T06:40:34;0.20;99.90
25154;DHT22;47555;51.038;6.280;2023-02-10T06:42:59;0.10;99.90
25154;DHT22;47555;51.038;6.280;2023-02-10T06:45:26;0.10;99.90
25154;DHT22;47555;51.038;6.280;2023-02-10T06:47:52;0.20;99.90
25154;DHT22;47555;51.038;6.280;2023-02-10T06:50:18;0.00;99.90
25154;DHT22;47555;51.038;6.280;2023-02-10T06:52:43;0.20;99.90
25154;DHT22;47555;51.038;6.280;2023-02-10T06:55:09;0.00;99.90
25154;DHT22;47555;51.038;6.280;2023-02-10T06:57:35;0.00;99.90
25154;DHT22;47555;51.038;6.280;2023-02-10T07:00:04;0.00;99.90
25154;DHT22;47555;51.038;6.280;2023-02-10T07:02:30;0.00;99.90
25154;DHT22;47555;51.038;6.280;2023-02-10T07:04:55;0.00;99.90
25154;DHT22;47555;51.038;6.280;2023-02-10T07:07:21;0.10;99.90
25154;DHT22;47555;51.038;6.280;2023-02-10T07:09:46;0.10;99.90
25154;DHT22;47555;51.038;6.280;2023-02-10T07:12:12;0.10;99.90
25154;DHT22;47555;51.038;6.280;2023-02-10T07:14:37;0.10;99.90
25154;DHT22;47555;51.038;6.280;2023-02-10T07:17:03;0.10;99.90
25154;DHT22;47555;51.038;6.280;2023-02-10T07:19:29;0.10;99.90
25154;DHT22;47555;51.038;6.280;2023-02-10T07:21:56;0.20;99.90
25154;DHT22;47555;51.038;6.280;2023-02-10T07:24:21;0.20;99.90
25154;DHT22;47555;51.038;6.280;2023-02-10T07:26:47;0.20;99.90
25154;DHT22;47555;51.038;6.280;2023-02-10T07:29:12;0.20;99.90
25154;DHT22;47555;51.038;6.280;2023-02-10T07:31:38;0.20;99.90
25154;DHT22;47555;51.038;6.280;2023-02-10T07:34:04;0.20;99.90
25154;DHT22;47555;51.038;6.280;2023-02-10T07:36:29;0.20;99.90
25154;DHT22;47555;51.038;6.280;2023-02-10T07:38:55;0.20;99.90
25154;DHT22;47555;51.038;6.280;2023-02-10T07:41:21;0.20;99.90
25154;DHT22;47555;51.038;6.280;2023-02-10T07:43:46;0.20;99.90
25154;DHT22;47555;51.038;6.280;2023-02-10T07:46:12;0.30;99.90
25154;DHT22;47555;51.038;6.280;2023-02-10T07:48:37;0.30;99.90
25154;DHT22;47555;51.038;6.280;2023-02-10T07:51:03;0.40;99.90
25154;DHT22;47555;51.038;6.280;2023-02-10T07:53:29;0.50;99.90
25154;DHT22;47555;51.038;6.280;2023-02-10T07:55:57;0.60;99.90
25154;DHT22;47555;51.038;6.280;2023-02-10T07:58:23;0.70;99.90
25154;DHT22;47555;51.038;6.280;2023-02-10T08:00:49;0.90;99.90
25154;DHT22;47555;51.038;6.280;2023-02-10T08:03:15;1.10;99.90
25154;DHT22;47555;51.038;6.280;2023-02-10T08:05:41;1.20;99.90
25154;DHT22;47555;51.038;6.280;2023-02-10T08:08:10;1.50;99.90
25154;DHT22;47555;51.038;6.280;2023-02-10T08:10:39;1.60;99.90
25154;DHT22;47555;51.038;6.280;2023-02-10T08:13:05;1.70;99.90
25154;DHT22;47555;51.038;6.280;2023-02-10T08:15:31;1.90;99.90
25154;DHT22;47555;51.038;6.280;2023-02-10T08:17:58;2.10;99.90
25154;DHT22;47555;51.038;6.280;2023-02-10T08:20:24;2.20;99.90
25154;DHT22;47555;51.038;6.280;2023-02-10T08:22:54;2.40;99.90
25154;DHT22;47555;51.038;6.280;2023-02-10T08:25:20;2.50;99.90
25154;DHT22;47555;51.038;6.280;2023-02-10T08:27:45;2.70;99.90
25154;DHT22;47555;51.038;6.280;2023-02-10T08:30:11;2.90;99.90
25154;DHT22;47555;51.038;6.280;2023-02-10T08:32:37;3.10;99.90
25154;DHT22;47555;51.038;6.280;2023-02-10T08:35:03;3.30;99.90
25154;DHT22;47555;51.038;6.280;2023-02-10T08:37:28;3.60;99.90
25154;DHT22;47555;51.038;6.280;2023-02-10T08:39:54;3.80;99.90
25154;DHT22;47555;51.038;6.280;2023-02-10T08:42:19;4.00;99.90
25154;DHT22;47555;51.038;6.280;2023-02-10T08:44:45;4.20;99.90
25154;DHT22;47555;51.038;6.280;2023-02-10T08:47:11;4.40;99.90
25154;DHT22;47555;51.038;6.280;2023-02-10T08:49:40;4.70;99.90
25154;DHT22;47555;51.038;6.280;2023-02-10T08:52:05;4.90;97.90
25154;DHT22;47555;51.038;6.280;2023-02-10T08:54:31;5.10;96.50
25154;DHT22;47555;51.038;6.280;2023-02-10T08:56:56;5.10;95.00
25154;DHT22;47555;51.038;6.280;2023-02-10T08:59:22;5.20;93.90
25154;DHT22;47555;51.038;6.280;2023-02-10T09:01:48;5.20;94.10
25154;DHT22;47555;51.038;6.280;2023-02-10T09:04:14;5.30;94.30
25154;DHT22;47555;51.038;6.280;2023-02-10T09:06:40;5.30;93.40
25154;DHT22;47555;51.038;6.280;2023-02-10T09:09:10;5.30;92.20
25154;DHT22;47555;51.038;6.280;2023-02-10T09:11:36;5.40;92.70
25154;DHT22;47555;51.038;6.280;2023-02-10T09:14:02;5.40;93.10
25154;DHT22;47555;51.038;6.280;2023-02-10T09:16:28;5.40;93.40
25154;DHT22;47555;51.038;6.280;2023-02-10T09:18:54;5.50;93.30
25154;DHT22;47555;51.038;6.280;2023-02-10T09:21:19;5.50;93.30
25154;DHT22;47555;51.038;6.280;2023-02-10T09:23:45;5.50;93.50
25154;DHT22;47555;51.038;6.280;2023-02-10T09:26:10;5.40;93.40
25154;DHT22;47555;51.038;6.280;2023-02-10T09:28:36;5.40;93.50
25154;DHT22;47555;51.038;6.280;2023-02-10T09:31:06;5.40;93.70
25154;DHT22;47555;51.038;6.280;2023-02-10T09:33:31;5.50;93.80
25154;DHT22;47555;51.038;6.280;2023-02-10T09:35:57;5.50;94.10
25154;DHT22;47555;51.038;6.280;2023-02-10T09:38:22;5.60;94.00
25154;DHT22;47555;51.038;6.280;2023-02-10T09:41:12;5.60;93.40
25154;DHT22;47555;51.038;6.280;2023-02-10T09:44:07;5.70;94.00
25154;DHT22;47555;51.038;6.280;2023-02-10T09:49:36;6.20;94.00
25154;DHT22;47555;51.038;6.280;2023-02-10T09:54:40;6.40;91.90
25154;DHT22;47555;51.038;6.280;2023-02-10T09:57:16;6.50;89.40
25154;DHT22;47555;51.038;6.280;2023-02-10T09:59:45;6.40;87.40
25154;DHT22;47555;51.038;6.280;2023-02-10T10:04:46;6.50;87.40
25154;DHT22;47555;51.038;6.280;2023-02-10T10:07:33;6.50;88.10
25154;DHT22;47555;51.038;6.280;2023-02-10T10:10:24;6.50;87.10
25154;DHT22;47555;51.038;6.280;2023-02-10T10:12:52;6.60;87.10
25154;DHT22;47555;51.038;6.280;2023-02-10T10:15:19;6.80;87.50
25154;DHT22;47555;51.038;6.280;2023-02-10T10:17:57;7.00;88.10
25154;DHT22;47555;51.038;6.280;2023-02-10T10:20:43;7.30;86.60
25154;DHT22;47555;51.038;6.280;2023-02-10T10:26:25;7.80;82.90
25154;DHT22;47555;51.038;6.280;2023-02-10T10:29:39;8.00;80.50
25154;DHT22;47555;51.038;6.280;2023-02-10T10:32:16;8.30;77.30
25154;DHT22;47555;51.038;6.280;2023-02-10T10:34:50;8.40;76.40
25154;DHT22;47555;51.038;6.280;2023-02-10T10:37:19;8.50;76.00
25154;DHT22;47555;51.038;6.280;2023-02-10T10:39:47;8.60;74.80
25154;DHT22;47555;51.038;6.280;2023-02-10T10:42:27;8.80;73.10
25154;DHT22;47555;51.038;6.280;2023-02-10T10:44:59;8.80;72.20
25154;DHT22;47555;51.038;6.280;2023-02-10T10:47:40;8.70;71.50
25154;DHT22;47555;51.038;6.280;2023-02-10T10:50:16;8.60;70.60
25154;DHT22;47555;51.038;6.280;2023-02-10T10:52:43;8.60;71.70
25154;DHT22;47555;51.038;6.280;2023-02-10T10:55:25;8.70;74.10
25154;DHT22;47555;51.038;6.280;2023-02-10T10:57:52;8.80;75.10
25154;DHT22;47555;51.038;6.280;2023-02-10T11:00:24;9.00;74.60
25154;DHT22;47555;51.038;6.280;2023-02-10T11:02:59;9.10;71.00
25154;DHT22;47555;51.038;6.280;2023-02-10T11:05:35;9.20;70.40
25154;DHT22;47555;51.038;6.280;2023-02-10T11:08:01;9.40;70.60
25154;DHT22;47555;51.038;6.280;2023-02-10T11:10:47;9.50;70.40
25154;DHT22;47555;51.038;6.280;2023-02-10T11:13:20;9.70;68.30
25154;DHT22;47555;51.038;6.280;2023-02-10T11:15:47;9.80;66.70
25154;DHT22;47555;51.038;6.280;2023-02-10T11:18:18;9.90;65.80
25154;DHT22;47555;51.038;6.280;2023-02-10T11:20:58;9.90;65.50
25154;DHT22;47555;51.038;6.280;2023-02-10T11:23:25;10.00;62.40
25154;DHT22;47555;51.038;6.280;2023-02-10T11:26:04;10.00;61.90
25154;DHT22;47555;51.038;6.280;2023-02-10T11:28:33;10.00;62.50
25154;DHT22;47555;51.038;6.280;2023-02-10T11:31:04;10.00;61.70
25154;DHT22;47555;51.038;6.280;2023-02-10T11:33:32;10.10;60.40
25154;DHT22;47555;51.038;6.280;2023-02-10T11:36:05;10.20;60.00
25154;DHT22;47555;51.038;6.280;2023-02-10T11:38:31;10.20;60.80
25154;DHT22;47555;51.038;6.280;2023-02-10T11:41:00;10.30;60.80
25154;DHT22;47555;51.038;6.280;2023-02-10T11:43:37;10.40;61.00
25154;DHT22;47555;51.038;6.280;2023-02-10T11:46:05;10.40;57.20
25154;DHT22;47555;51.038;6.280;2023-02-10T11:48:33;10.30;54.60
25154;DHT22;47555;51.038;6.280;2023-02-10T11:51:16;10.40;54.40
25154;DHT22;47555;51.038;6.280;2023-02-10T11:53:45;10.40;54.20
25154;DHT22;47555;51.038;6.280;2023-02-10T11:56:33;10.50;53.60
25154;DHT22;47555;51.038;6.280;2023-02-10T12:04:57;10.70;46.00
25154;DHT22;47555;51.038;6.280;2023-02-10T12:10:19;10.70;46.10
25154;DHT22;47555;51.038;6.280;2023-02-10T12:14:16;10.80;46.60
25154;DHT22;47555;51.038;6.280;2023-02-10T12:16:24;10.90;44.10
25154;DHT22;47555;51.038;6.280;2023-02-10T12:19:08;10.90;41.90
25154;DHT22;47555;51.038;6.280;2023-02-10T12:24:33;10.90;40.70
25154;DHT22;47555;51.038;6.280;2023-02-10T12:27:30;11.00;41.80
25154;DHT22;47555;51.038;6.280;2023-02-10T12:30:04;11.00;40.70
25154;DHT22;47555;51.038;6.280;2023-02-10T12:32:54;11.00;41.80
25154;DHT22;47555;51.038;6.280;2023-02-10T12:49:20;11.10;39.30
25154;DHT22;47555;51.038;6.280;2023-02-10T12:59:59;11.00;41.90
25154;DHT22;47555;51.038;6.280;2023-02-10T13:05:05;10.90;39.10
25154;DHT22;47555;51.038;6.280;2023-02-10T13:07:51;10.90;39.40
25154;DHT22;47555;51.038;6.280;2023-02-10T13:10:38;10.90;40.20
25154;DHT22;47555;51.038;6.280;2023-02-10T13:13:13;10.70;41.00
25154;DHT22;47555;51.038;6.280;2023-02-10T13:15:54;10.60;40.10
25154;DHT22;47555;51.038;6.280;2023-02-10T13:18:24;10.60;41.30
25154;DHT22;47555;51.038;6.280;2023-02-10T13:21:11;10.60;42.30
25154;DHT22;47555;51.038;6.280;2023-02-10T13:23:49;10.60;41.70
25154;DHT22;47555;51.038;6.280;2023-02-10T13:26:25;10.50;42.30
25154;DHT22;47555;51.038;6.280;2023-02-10T13:34:48;10.30;42.80
25154;DHT22;47555;51.038;6.280;2023-02-10T13:39:53;10.20;44.00
25154;DHT22;47555;51.038;6.280;2023-02-10T13:42:32;10.10;45.20
25154;DHT22;47555;51.038;6.280;2023-02-10T13:45:14;10.20;45.40
25154;DHT22;47555;51.038;6.280;2023-02-10T13:52:59;10.20;45.50
25154;DHT22;47555;51.038;6.280;2023-02-10T13:55:39;10.20;45.40
25154;DHT22;47555;51.038;6.280;2023-02-10T14:06:00;9.90;46.10
25154;DHT22;47555;51.038;6.280;2023-02-10T14:14:15;9.70;44.30
25154;DHT22;47555;51.038;6.280;2023-02-10T14:16:36;9.70;44.80
25154;DHT22;47555;51.038;6.280;2023-02-10T14:19:17;9.60;47.10
25154;DHT22;47555;51.038;6.280;2023-02-10T14:21:45;9.70;46.50
25154;DHT22;47555;51.038;6.280;2023-02-10T14:24:25;9.60;46.00
25154;DHT22;47555;51.038;6.280;2023-02-10T14:26:52;9.60;46.60
25154;DHT22;47555;51.038;6.280;2023-02-10T14:29:20;9.50;47.00
25154;DHT22;47555;51.038;6.280;2023-02-10T14:31:52;9.50;47.70
25154;DHT22;47555;51.038;6.280;2023-02-10T14:34:32;9.50;47.50
25154;DHT22;47555;51.038;6.280;2023-02-10T14:37:13;9.50;47.80
25154;DHT22;47555;51.038;6.280;2023-02-10T14:39:39;9.50;47.20
25154;DHT22;47555;51.038;6.280;2023-02-10T14:42:06;9.50;48.10
25154;DHT22;47555;51.038;6.280;2023-02-10T14:44:40;9.60;47.90
25154;DHT22;47555;51.038;6.280;2023-02-10T14:47:26;9.50;47.50
25154;DHT22;47555;51.038;6.280;2023-02-10T14:49:54;9.50;48.80
25154;DHT22;47555;51.038;6.280;2023-02-10T14:52:27;9.50;48.30
25154;DHT22;47555;51.038;6.280;2023-02-10T14:54:53;9.40;48.80
25154;DHT22;47555;51.038;6.280;2023-02-10T14:57:20;9.30;49.90
25154;DHT22;47555;51.038;6.280;2023-02-10T14:59:54;9.30;50.40
25154;DHT22;47555;51.038;6.280;2023-02-10T15:02:22;9.30;49.00
25154;DHT22;47555;51.038;6.280;2023-02-10T15:04:51;9.30;48.90
25154;DHT22;47555;51.038;6.280;2023-02-10T15:07:29;9.40;48.70
25154;DHT22;47555;51.038;6.280;2023-02-10T15:09:59;9.40;49.30
25154;DHT22;47555;51.038;6.280;2023-02-10T15:12:25;9.40;51.20
25154;DHT22;47555;51.038;6.280;2023-02-10T15:15:02;9.50;50.60
25154;DHT22;47555;51.038;6.280;2023-02-10T15:18:04;9.40;50.60
25154;DHT22;47555;51.038;6.280;2023-02-10T15:20:32;9.20;50.30
25154;DHT22;47555;51.038;6.280;2023-02-10T15:25:32;9.30;49.50
25154;DHT22;47555;51.038;6.280;2023-02-10T15:30:57;9.20;50.80
25154;DHT22;47555;51.038;6.280;2023-02-10T15:33:26;9.10;51.50
25154;DHT22;47555;51.038;6.280;2023-02-10T15:36:44;9.00;52.50
25154;DHT22;47555;51.038;6.280;2023-02-10T15:41:43;8.80;55.10
25154;DHT22;47555;51.038;6.280;2023-02-10T15:46:48;8.70;55.80
25154;DHT22;47555;51.038;6.280;2023-02-10T15:49:16;8.60;55.40
25154;DHT22;47555;51.038;6.280;2023-02-10T15:51:48;8.60;56.00
25154;DHT22;47555;51.038;6.280;2023-02-10T15:54:20;8.50;56.50
25154;DHT22;47555;51.038;6.280;2023-02-10T15:57:00;8.50;56.80
25154;DHT22;47555;51.038;6.280;2023-02-10T15:59:26;8.40;57.60
25154;DHT22;47555;51.038;6.280;2023-02-10T16:01:59;8.40;57.60
25154;DHT22;47555;51.038;6.280;2023-02-10T16:04:25;8.40;58.30
25154;DHT22;47555;51.038;6.280;2023-02-10T16:06:53;8.30;59.00
25154;DHT22;47555;51.038;6.280;2023-02-10T16:09:18;8.20;59.40
25154;DHT22;47555;51.038;6.280;2023-02-10T16:11:44;8.20;60.50
25154;DHT22;47555;51.038;6.280;2023-02-10T16:14:09;8.10;61.90
25154;DHT22;47555;51.038;6.280;2023-02-10T16:16:41;8.00;62.60
25154;DHT22;47555;51.038;6.280;2023-02-10T16:19:10;7.90;63.50
25154;DHT22;47555;51.038;6.280;2023-02-10T16:21:36;7.80;64.70
25154;DHT22;47555;51.038;6.280;2023-02-10T16:24:02;7.70;65.10
25154;DHT22;47555;51.038;6.280;2023-02-10T16:26:28;7.70;66.50
25154;DHT22;47555;51.038;6.280;2023-02-10T16:28:54;7.60;67.00
25154;DHT22;47555;51.038;6.280;2023-02-10T16:31:21;7.50;68.30
25154;DHT22;47555;51.038;6.280;2023-02-10T16:33:47;7.40;69.40
25154;DHT22;47555;51.038;6.280;2023-02-10T16:36:14;7.40;71.70
25154;DHT22;47555;51.038;6.280;2023-02-10T16:38:41;7.30;73.20
25154;DHT22;47555;51.038;6.280;2023-02-10T16:41:07;7.30;75.60
25154;DHT22;47555;51.038;6.280;2023-02-10T16:43:34;7.30;76.80
25154;DHT22;47555;51.038;6.280;2023-02-10T16:46:00;7.30;77.90
25154;DHT22;47555;51.038;6.280;2023-02-10T16:48:25;7.20;79.00
25154;DHT22;47555;51.038;6.280;2023-02-10T16:50:51;7.10;79.90
25154;DHT22;47555;51.038;6.280;2023-02-10T16:53:16;7.10;79.80
25154;DHT22;47555;51.038;6.280;2023-02-10T16:55:42;7.00;80.20
25154;DHT22;47555;51.038;6.280;2023-02-10T16:58:13;6.90;80.70
25154;DHT22;47555;51.038;6.280;2023-02-10T17:00:39;6.80;81.20
25154;DHT22;47555;51.038;6.280;2023-02-10T17:03:04;6.70;82.80
25154;DHT22;47555;51.038;6.280;2023-02-10T17:05:30;6.60;83.70
25154;DHT22;47555;51.038;6.280;2023-02-10T17:07:58;6.50;85.30
25154;DHT22;47555;51.038;6.280;2023-02-10T17:10:26;6.50;86.50
25154;DHT22;47555;51.038;6.280;2023-02-10T17:12:52;6.50;88.70
25154;DHT22;47555;51.038;6.280;2023-02-10T17:15:18;6.50;90.80
25154;DHT22;47555;51.038;6.280;2023-02-10T17:17:44;6.60;92.20
25154;DHT22;47555;51.038;6.280;2023-02-10T17:20:20;6.70;92.60
25154;DHT22;47555;51.038;6.280;2023-02-10T17:22:47;6.70;93.80
25154;DHT22;47555;51.038;6.280;2023-02-10T17:25:13;6.80;94.10
25154;DHT22;47555;51.038;6.280;2023-02-10T17:27:39;6.80;93.90
25154;DHT22;47555;51.038;6.280;2023-02-10T17:30:05;6.80;93.50
25154;DHT22;47555;51.038;6.280;2023-02-10T17:32:31;6.80;93.00
25154;DHT22;47555;51.038;6.280;2023-02-10T17:34:57;6.90;92.90
25154;DHT22;47555;51.038;6.280;2023-02-10T17:37:23;6.80;92.40
25154;DHT22;47555;51.038;6.280;2023-02-10T17:39:48;6.80;93.00
25154;DHT22;47555;51.038;6.280;2023-02-10T17:42:21;6.70;92.40